createdAt,value
2024-02-08T00:01:10.454Z,7.40
2024-02-08T00:03:37.877Z,7.13
2024-02-08T00:06:05.608Z,6.70
2024-02-08T00:08:36.469Z,6.40
2024-02-08T00:11:04.055Z,6.45
2024-02-08T00:13:31.719Z,6.35
2024-02-08T00:15:59.621Z,6.33
2024-02-08T00:18:27.266Z,6.32
2024-02-08T00:20:54.775Z,6.60
2024-02-08T00:23:22.212Z,6.07
2024-02-08T00:25:51.781Z,6.30
2024-02-08T00:28:19.384Z,6.32
2024-02-08T00:30:47.004Z,6.70
2024-02-08T00:33:14.540Z,6.27
2024-02-08T00:35:42.272Z,6.10
2024-02-08T00:38:10.097Z,5.85
2024-02-08T00:40:37.900Z,7.00
2024-02-08T00:43:07.960Z,7.03
2024-02-08T00:45:35.772Z,5.97
2024-02-08T00:48:03.761Z,5.93
2024-02-08T00:50:31.172Z,6.43
2024-02-08T00:53:00.012Z,6.00
2024-02-08T00:55:27.743Z,6.95
2024-02-08T00:57:55.876Z,6.90
2024-02-08T01:00:23.693Z,6.75
2024-02-08T01:02:51.134Z,5.82
2024-02-08T01:05:22.392Z,5.80
2024-02-08T01:07:50.269Z,6.07
2024-02-08T01:10:17.734Z,6.30
2024-02-08T01:12:45.361Z,6.30
2024-02-08T01:15:15.689Z,5.55
2024-02-08T01:17:43.807Z,5.30
2024-02-08T01:20:11.777Z,5.88
2024-02-08T01:22:39.277Z,5.18
2024-02-08T01:25:06.957Z,5.72
2024-02-08T01:27:34.442Z,3.97
2024-02-08T01:30:08.328Z,5.00
2024-02-08T01:32:35.870Z,4.50
2024-02-08T01:35:04.042Z,4.32
2024-02-08T01:37:32.063Z,5.15
2024-02-08T01:39:59.575Z,4.55
2024-02-08T01:42:27.036Z,4.70
2024-02-08T01:45:14.433Z,5.10
2024-02-08T01:47:42.056Z,5.00
2024-02-08T01:50:10.031Z,5.00
2024-02-08T01:52:37.617Z,5.82
2024-02-08T01:55:07.129Z,5.17
2024-02-08T01:57:34.570Z,5.10
2024-02-08T02:00:02.306Z,4.88
2024-02-08T02:02:40.149Z,5.13
2024-02-08T02:07:36.818Z,5.47
2024-02-08T02:10:04.361Z,6.00
2024-02-08T02:12:32.213Z,5.97
2024-02-08T02:15:05.299Z,6.00
2024-02-08T02:17:34.798Z,6.38
2024-02-08T02:20:07.793Z,6.53
2024-02-08T02:22:35.670Z,6.85
2024-02-08T02:25:03.451Z,7.23
2024-02-08T02:27:30.958Z,7.27
2024-02-08T02:29:58.560Z,7.90
2024-02-08T02:32:28.605Z,7.60
2024-02-08T02:34:56.283Z,8.40
2024-02-08T02:37:24.166Z,8.37
2024-02-08T02:39:51.792Z,8.88
2024-02-08T02:42:19.720Z,8.02
2024-02-08T02:44:47.752Z,7.68
2024-02-08T02:47:15.265Z,7.32
2024-02-08T02:49:42.969Z,8.48
2024-02-08T02:52:10.607Z,8.65
2024-02-08T02:54:38.166Z,8.93
2024-02-08T02:57:07.935Z,9.15
2024-02-08T02:59:35.355Z,8.98
2024-02-08T03:02:03.077Z,8.88
2024-02-08T03:04:31.723Z,8.90
2024-02-08T03:09:29.403Z,9.18
2024-02-08T03:12:00.463Z,9.57
2024-02-08T03:14:28.421Z,9.25
2024-02-08T03:17:02.570Z,8.32
2024-02-08T03:19:32.112Z,8.63
2024-02-08T03:22:00.511Z,9.32
2024-02-08T03:24:37.559Z,8.98
2024-02-08T03:27:06.798Z,9.75
2024-02-08T03:29:36.061Z,9.35
2024-02-08T03:32:04.913Z,9.38
2024-02-08T03:34:32.905Z,9.88
2024-02-08T03:37:01.170Z,9.93
2024-02-08T03:39:29.193Z,9.70
2024-02-08T03:42:00.639Z,10.63
2024-02-08T03:44:31.729Z,10.23
2024-02-08T03:47:05.226Z,9.57
2024-02-08T03:49:39.318Z,9.45
2024-02-08T03:52:10.643Z,8.63
2024-02-08T03:54:38.541Z,9.38
2024-02-08T03:57:09.295Z,9.55
2024-02-08T03:59:42.385Z,9.82
2024-02-08T04:02:11.223Z,9.93
2024-02-08T04:04:59.324Z,9.57
2024-02-08T04:07:56.254Z,10.10
2024-02-08T04:10:36.008Z,10.30
2024-02-08T04:13:22.346Z,11.23
2024-02-08T04:16:08.700Z,10.85
2024-02-08T04:18:57.263Z,11.80
2024-02-08T04:21:43.593Z,10.43
2024-02-08T04:24:29.805Z,10.13
2024-02-08T04:27:16.200Z,9.95
2024-02-08T04:30:02.662Z,10.35
2024-02-08T04:32:48.867Z,10.93
2024-02-08T04:35:36.813Z,9.57
2024-02-08T04:38:23.291Z,10.30
2024-02-08T04:41:09.437Z,10.68
2024-02-08T04:43:55.640Z,10.25
2024-02-08T04:46:42.656Z,11.23
2024-02-08T04:49:29.355Z,10.63
2024-02-08T04:52:15.616Z,10.80
2024-02-08T04:54:43.203Z,11.27
2024-02-08T04:57:14.219Z,10.48
2024-02-08T04:59:46.938Z,10.68
2024-02-08T05:02:15.529Z,10.43
2024-02-08T05:07:12.400Z,11.63
2024-02-08T05:09:41.431Z,11.07
2024-02-08T05:12:12.326Z,10.45
2024-02-08T05:14:40.394Z,10.05
2024-02-08T05:17:10.727Z,9.68
2024-02-08T05:19:45.611Z,9.85
2024-02-08T05:22:14.934Z,10.15
2024-02-08T05:24:43.030Z,10.50
2024-02-08T05:27:12.635Z,10.23
2024-02-08T05:29:42.592Z,10.70
2024-02-08T05:32:11.729Z,10.57
2024-02-08T05:34:40.790Z,9.65
2024-02-08T05:37:08.617Z,9.90
2024-02-08T05:39:37.690Z,10.52
2024-02-08T05:42:06.531Z,9.75
2024-02-08T05:47:10.778Z,10.18
2024-02-08T05:49:40.028Z,10.13
2024-02-08T05:52:08.860Z,10.45
2024-02-08T05:54:42.232Z,9.55
2024-02-08T05:57:12.829Z,8.70
2024-02-08T05:59:41.405Z,10.10
2024-02-08T06:02:17.331Z,9.73
2024-02-08T06:04:52.860Z,9.40
2024-02-08T06:07:22.082Z,9.25
2024-02-08T06:09:56.552Z,9.35
2024-02-08T06:12:45.205Z,9.10
2024-02-08T06:15:36.875Z,8.65
2024-02-08T06:18:07.523Z,7.97
2024-02-08T06:20:37.442Z,8.80
2024-02-08T06:23:19.183Z,8.10
2024-02-08T06:26:10.412Z,7.93
2024-02-08T06:28:49.040Z,8.02
2024-02-08T06:34:06.822Z,8.25
2024-02-08T06:36:35.758Z,8.02
2024-02-08T06:39:22.521Z,7.45
2024-02-08T06:41:54.244Z,7.05
2024-02-08T06:44:42.214Z,6.68
2024-02-08T06:47:28.261Z,6.88
2024-02-08T06:50:14.309Z,6.30
2024-02-08T06:53:00.698Z,6.05
2024-02-08T06:55:47.072Z,6.10
2024-02-08T06:58:33.343Z,5.95
2024-02-08T07:01:19.758Z,5.05
2024-02-08T07:04:06.510Z,5.85
2024-02-08T07:06:52.982Z,5.43
2024-02-08T07:09:39.243Z,6.15
2024-02-08T07:12:25.689Z,6.68
2024-02-08T07:15:11.699Z,6.32
2024-02-08T07:17:58.033Z,6.35
2024-02-08T07:20:44.410Z,6.13
2024-02-08T07:23:30.703Z,6.10
2024-02-08T07:26:17.013Z,6.07
2024-02-08T07:29:03.098Z,7.43
2024-02-08T07:31:49.201Z,6.60
2024-02-08T07:34:35.609Z,7.05
2024-02-08T07:37:19.225Z,6.15
2024-02-08T07:40:02.874Z,5.35
2024-02-08T07:42:31.310Z,4.50
2024-02-08T07:44:59.255Z,4.20
2024-02-08T07:47:27.050Z,4.07
2024-02-08T07:50:09.647Z,3.30
2024-02-08T07:52:47.594Z,4.10
2024-02-08T07:55:16.038Z,3.95
2024-02-08T08:03:10.449Z,3.20
2024-02-08T08:05:43.253Z,3.22
2024-02-08T08:08:26.936Z,3.00
2024-02-08T08:11:03.855Z,2.67
2024-02-08T08:13:50.531Z,3.22
2024-02-08T08:16:31.074Z,2.92
2024-02-08T08:19:09.831Z,3.17
2024-02-08T08:21:57.687Z,3.03
2024-02-08T08:24:28.823Z,2.87
2024-02-08T08:27:08.241Z,2.20
2024-02-08T08:29:45.949Z,2.40
2024-02-08T08:32:32.454Z,2.75
2024-02-08T08:35:23.129Z,2.83
2024-02-08T08:38:10.892Z,2.75
2024-02-08T08:40:41.895Z,2.75
2024-02-08T08:43:21.232Z,2.63
2024-02-08T08:45:52.932Z,2.50
2024-02-08T08:48:21.025Z,2.70
2024-02-08T08:50:56.582Z,2.92
2024-02-08T08:53:37.342Z,2.53
2024-02-08T08:56:05.125Z,2.03
2024-02-08T08:58:43.823Z,1.97
2024-02-08T09:01:16.685Z,1.70
2024-02-08T09:03:45.764Z,1.80
2024-02-08T09:06:13.656Z,1.90
2024-02-08T09:08:47.410Z,1.80
2024-02-08T09:11:16.092Z,1.88
2024-02-08T09:13:44.210Z,1.60
2024-02-08T09:16:25.556Z,1.58
2024-02-08T09:19:01.279Z,1.67
2024-02-08T09:21:40.508Z,1.70
2024-02-08T09:27:14.631Z,1.58
2024-02-08T09:29:43.840Z,1.40
2024-02-08T09:32:31.069Z,1.48
2024-02-08T09:35:00.138Z,1.55
2024-02-08T09:37:30.442Z,1.17
2024-02-08T09:39:58.021Z,1.20
2024-02-08T09:42:28.799Z,1.10
2024-02-08T09:45:15.465Z,0.90
2024-02-08T09:47:54.355Z,1.10
2024-02-08T09:50:23.939Z,0.90
2024-02-08T09:53:01.230Z,0.85
2024-02-08T09:55:33.861Z,0.90
2024-02-08T09:58:05.818Z,0.73
2024-02-08T10:00:54.249Z,1.20
2024-02-08T10:06:13.776Z,2.70
2024-02-08T10:08:52.743Z,1.92
2024-02-08T10:11:28.421Z,1.30
2024-02-08T10:14:03.822Z,1.20
2024-02-08T10:16:43.287Z,1.60
2024-02-08T10:19:30.270Z,1.70
2024-02-08T10:22:22.375Z,1.63
2024-02-08T10:24:49.956Z,1.98
2024-02-08T10:27:20.666Z,2.25
2024-02-08T10:30:08.693Z,2.10
2024-02-08T10:32:37.419Z,2.10
2024-02-08T10:35:21.178Z,1.40
2024-02-08T10:37:55.264Z,1.10
2024-02-08T10:40:34.083Z,1.20
2024-02-08T10:43:04.120Z,1.02
2024-02-08T10:45:34.135Z,0.90
2024-02-08T10:48:02.374Z,1.10
2024-02-08T10:50:30.827Z,0.98
2024-02-08T10:53:04.787Z,0.60
2024-02-08T10:55:38.329Z,0.73
2024-02-08T10:58:10.782Z,0.70
2024-02-08T11:00:41.745Z,0.70
2024-02-08T11:03:16.217Z,0.55
2024-02-08T11:06:10.989Z,0.77
2024-02-08T11:08:52.089Z,0.70
2024-02-08T11:11:22.432Z,0.77
2024-02-08T11:13:54.809Z,0.68
2024-02-08T11:16:25.115Z,0.68
2024-02-08T11:18:54.772Z,0.65
2024-02-08T11:21:44.152Z,0.80
2024-02-08T11:24:29.706Z,0.70
2024-02-08T11:26:59.652Z,0.70
2024-02-08T11:29:30.821Z,0.82
2024-02-08T11:32:01.180Z,0.70
2024-02-08T11:34:35.495Z,0.90
2024-02-08T11:37:20.505Z,0.77
2024-02-08T11:39:59.796Z,0.82
2024-02-08T11:42:32.925Z,0.70
2024-02-08T11:45:02.435Z,0.98
2024-02-08T11:47:39.097Z,0.80
2024-02-08T11:50:10.593Z,0.70
2024-02-08T11:52:40.049Z,0.98
2024-02-08T11:55:13.755Z,1.42
2024-02-08T11:57:42.557Z,1.70
2024-02-08T12:00:18.694Z,1.90
2024-02-08T12:03:10.780Z,1.88
2024-02-08T12:05:42.818Z,2.80
2024-02-08T12:08:11.970Z,2.05
2024-02-08T12:10:43.437Z,2.05
2024-02-08T12:13:15.419Z,2.17
2024-02-08T12:15:58.100Z,1.92
2024-02-08T12:18:29.835Z,2.10
2024-02-08T12:20:59.240Z,2.38
2024-02-08T12:23:32.523Z,1.70
2024-02-08T12:26:03.054Z,1.70
2024-02-08T12:28:35.951Z,1.90
2024-02-08T12:31:05.023Z,1.80
2024-02-08T12:33:33.984Z,1.40
2024-02-08T12:36:01.789Z,1.48
2024-02-08T12:38:32.183Z,1.30
2024-02-08T12:41:03.835Z,1.40
2024-02-08T12:43:35.194Z,1.20
2024-02-08T12:46:02.809Z,1.50
2024-02-08T12:48:30.485Z,1.30
2024-02-08T12:50:58.287Z,1.17
2024-02-08T12:53:25.864Z,1.30
2024-02-08T12:55:53.353Z,1.20
2024-02-08T12:58:25.205Z,1.20
2024-02-08T13:01:08.712Z,1.30
2024-02-08T13:03:38.722Z,1.20
2024-02-08T13:06:06.391Z,1.15
2024-02-08T13:08:34.746Z,0.93
2024-02-08T13:13:30.444Z,1.20
2024-02-08T13:16:06.956Z,1.10
2024-02-08T13:18:36.029Z,1.27
2024-02-08T13:21:05.261Z,1.15
2024-02-08T13:23:35.571Z,1.00
2024-02-08T13:26:13.109Z,1.05
2024-02-08T13:28:43.624Z,0.98
2024-02-08T13:31:11.108Z,0.90
2024-02-08T13:33:40.085Z,0.90
2024-02-08T13:36:10.537Z,0.77
2024-02-08T13:38:40.468Z,1.00
2024-02-08T13:41:11.619Z,0.70
2024-02-08T13:43:47.409Z,1.00
2024-02-08T13:46:16.419Z,0.90
2024-02-08T13:48:44.136Z,1.10
2024-02-08T13:51:12.055Z,0.80
2024-02-08T13:53:43.062Z,1.15
2024-02-08T13:56:13.542Z,1.30
2024-02-08T13:58:41.894Z,0.90
2024-02-08T14:01:09.554Z,1.30
2024-02-08T14:03:37.245Z,1.20
2024-02-08T14:06:10.906Z,1.17
2024-02-08T14:08:44.595Z,1.50
2024-02-08T14:11:17.778Z,1.30
2024-02-08T14:13:46.258Z,1.10
2024-02-08T14:16:18.106Z,1.10
2024-02-08T14:18:56.148Z,1.95
2024-02-08T14:21:27.899Z,1.90
2024-02-08T14:24:02.766Z,1.85
2024-02-08T14:26:44.435Z,2.25
2024-02-08T14:29:14.225Z,2.05
2024-02-08T14:31:42.894Z,2.30
2024-02-08T14:34:12.653Z,2.10
2024-02-08T14:36:49.638Z,2.75
2024-02-08T14:39:29.263Z,2.50
2024-02-08T14:41:58.145Z,2.67
2024-02-08T14:44:33.010Z,2.30
2024-02-08T14:47:01.756Z,2.88
2024-02-08T14:49:32.252Z,2.50
2024-02-08T14:52:04.486Z,1.95
2024-02-08T14:54:33.046Z,4.35
2024-02-08T14:57:07.429Z,5.75
2024-02-08T14:59:52.663Z,4.45
2024-02-08T15:02:24.337Z,3.83
2024-02-08T15:04:56.863Z,3.63
2024-02-08T15:07:42.947Z,5.90
2024-02-08T15:10:15.821Z,4.97
2024-02-08T15:12:53.380Z,3.65
2024-02-08T15:15:31.854Z,4.30
2024-02-08T15:18:13.622Z,3.35
2024-02-08T15:20:47.987Z,3.47
2024-02-08T15:23:35.661Z,3.72
2024-02-08T15:26:04.645Z,4.22
2024-02-08T15:28:35.336Z,4.55
2024-02-08T15:31:13.748Z,5.47
2024-02-08T15:33:59.416Z,5.80
2024-02-08T15:36:45.703Z,5.13
2024-02-08T15:39:48.521Z,5.13
2024-02-08T15:42:21.459Z,6.25
2024-02-08T15:44:54.344Z,5.63
2024-02-08T15:47:22.880Z,7.20
2024-02-08T15:49:56.122Z,7.38
2024-02-08T15:52:27.247Z,6.90
2024-02-08T15:55:00.027Z,6.00
2024-02-08T15:57:34.275Z,6.18
2024-02-08T16:00:02.342Z,6.85
2024-02-08T16:02:37.167Z,7.22
2024-02-08T16:05:15.170Z,6.80
2024-02-08T16:10:25.835Z,7.05
2024-02-08T16:13:06.867Z,6.18
2024-02-08T16:15:55.934Z,6.07
2024-02-08T16:20:56.437Z,6.22
2024-02-08T16:23:45.579Z,4.90
2024-02-08T16:26:14.306Z,4.28
2024-02-08T16:28:51.202Z,4.22
2024-02-08T16:31:19.852Z,3.63
2024-02-08T16:36:31.379Z,2.90
2024-02-08T16:39:23.117Z,3.08
2024-02-08T16:42:00.307Z,3.38
2024-02-08T16:44:32.105Z,3.08
2024-02-08T16:47:08.440Z,3.58
2024-02-08T16:49:42.306Z,4.00
2024-02-08T16:52:20.775Z,4.22
2024-02-08T16:57:33.389Z,4.20
2024-02-08T17:00:19.598Z,4.03
2024-02-08T17:03:06.331Z,5.32
2024-02-08T17:05:52.690Z,4.80
2024-02-08T17:08:22.709Z,4.28
2024-02-08T17:10:58.100Z,3.42
2024-02-08T17:13:46.355Z,4.00
2024-02-08T17:16:36.774Z,5.22
2024-02-08T17:19:25.027Z,4.80
2024-02-08T17:21:52.808Z,5.30
2024-02-08T17:24:30.541Z,4.45
2024-02-08T17:27:03.716Z,5.20
2024-02-08T17:29:46.459Z,5.28
2024-02-08T17:32:14.452Z,5.80
2024-02-08T17:34:42.020Z,6.60
2024-02-08T17:37:15.023Z,6.03
2024-02-08T17:39:42.752Z,6.32
2024-02-08T17:42:10.583Z,6.87
2024-02-08T17:44:42.562Z,7.05
2024-02-08T17:47:10.645Z,7.43
2024-02-08T17:49:38.678Z,7.22
2024-02-08T17:52:08.130Z,6.35
2024-02-08T17:54:53.660Z,5.40
2024-02-08T17:57:24.960Z,6.00
2024-02-08T18:00:02.539Z,4.75
2024-02-08T18:02:33.620Z,5.05
2024-02-08T18:05:10.096Z,4.53
2024-02-08T18:07:38.381Z,4.05
2024-02-08T18:10:18.417Z,4.60
2024-02-08T18:12:53.740Z,4.47
2024-02-08T18:15:27.877Z,4.85
2024-02-08T18:17:57.498Z,5.80
2024-02-08T18:20:31.375Z,6.15
2024-02-08T18:23:06.875Z,5.40
2024-02-08T18:25:37.733Z,4.78
2024-02-08T18:28:07.393Z,4.35
2024-02-08T18:30:36.920Z,6.22
2024-02-08T18:33:06.216Z,12.30
2024-02-08T18:35:35.152Z,11.73
2024-02-08T18:38:09.621Z,8.30
2024-02-08T18:40:39.052Z,9.27
2024-02-08T18:43:07.323Z,8.70
2024-02-08T18:45:42.435Z,7.68
2024-02-08T18:48:12.817Z,7.63
2024-02-08T18:50:44.557Z,6.38
2024-02-08T18:53:14.172Z,5.72
2024-02-08T18:55:52.742Z,4.93
2024-02-08T18:58:22.974Z,4.90
2024-02-08T19:00:54.653Z,4.85
2024-02-08T19:03:22.870Z,6.15
2024-02-08T19:05:51.108Z,5.03
2024-02-08T19:08:23.174Z,5.53
2024-02-08T19:11:12.066Z,5.30
2024-02-08T19:13:41.193Z,5.20
2024-02-08T19:16:16.919Z,4.95
2024-02-08T19:18:59.226Z,4.60
2024-02-08T19:21:33.400Z,5.00
2024-02-08T19:24:02.619Z,4.85
2024-02-08T19:26:33.162Z,4.72
2024-02-08T19:29:01.737Z,4.80
2024-02-08T19:31:30.981Z,5.20
2024-02-08T19:34:05.231Z,4.95
2024-02-08T19:36:33.929Z,4.70
2024-02-08T19:39:21.504Z,5.15
2024-02-08T19:41:50.897Z,5.72
2024-02-08T19:44:25.624Z,4.60
2024-02-08T19:47:08.446Z,4.95
2024-02-08T19:49:40.313Z,4.53
2024-02-08T19:52:09.118Z,4.07
2024-02-08T19:54:39.707Z,4.53
2024-02-08T19:57:07.494Z,3.50
2024-02-08T19:59:40.729Z,3.67
2024-02-08T20:02:08.825Z,3.50
2024-02-08T20:04:39.641Z,3.83
2024-02-08T20:07:12.496Z,3.78
2024-02-08T20:09:47.599Z,3.90
2024-02-08T20:12:16.499Z,4.20
2024-02-08T20:14:44.619Z,7.57
2024-02-08T20:17:14.234Z,6.80
2024-02-08T20:19:43.005Z,8.48
2024-02-08T20:22:13.418Z,5.63
2024-02-08T20:24:44.972Z,5.25
2024-02-08T20:27:12.365Z,3.90
2024-02-08T20:29:43.323Z,3.92
2024-02-08T20:32:14.213Z,2.97
2024-02-08T20:34:42.176Z,3.95
2024-02-08T20:37:15.181Z,2.55
2024-02-08T20:39:43.448Z,2.30
2024-02-08T20:42:13.683Z,2.38
2024-02-08T20:44:45.046Z,2.38
2024-02-08T20:47:13.240Z,2.00
2024-02-08T20:49:42.279Z,2.35
2024-02-08T20:52:13.645Z,2.70
2024-02-08T20:54:50.167Z,2.60
2024-02-08T20:57:19.238Z,2.45
2024-02-08T20:59:49.910Z,2.20
2024-02-08T21:02:17.399Z,2.50
2024-02-08T21:04:50.416Z,2.22
2024-02-08T21:07:18.452Z,2.40
2024-02-08T21:09:46.069Z,2.78
2024-02-08T21:12:14.158Z,2.78
2024-02-08T21:14:43.923Z,2.58
2024-02-08T21:17:16.341Z,3.08
2024-02-08T21:19:48.489Z,3.20
2024-02-08T21:22:16.991Z,3.22
2024-02-08T21:27:20.036Z,3.58
2024-02-08T21:29:48.058Z,3.28
2024-02-08T21:32:15.650Z,2.97
2024-02-08T21:34:43.159Z,3.20
2024-02-08T21:37:10.659Z,2.53
2024-02-08T21:39:38.573Z,2.40
2024-02-08T21:42:07.869Z,2.20
2024-02-08T21:44:36.115Z,2.08
2024-02-08T21:47:03.639Z,2.35
2024-02-08T21:49:31.316Z,2.28
2024-02-08T21:51:58.828Z,2.20
2024-02-08T21:54:27.742Z,2.13
2024-02-08T21:56:56.030Z,1.98
2024-02-08T21:59:24.660Z,2.63
2024-02-08T22:04:22.802Z,4.05
2024-02-08T22:06:50.411Z,3.58
2024-02-08T22:09:19.189Z,2.95
2024-02-08T22:11:48.146Z,2.17
2024-02-08T22:14:20.828Z,1.50
2024-02-08T22:16:48.928Z,1.40
2024-02-08T22:19:16.524Z,1.20
2024-02-08T22:21:47.147Z,1.30
2024-02-08T22:24:14.985Z,1.20
2024-02-08T22:26:50.513Z,1.20
2024-02-08T22:29:18.198Z,1.20
2024-02-08T22:31:53.191Z,1.27
2024-02-08T22:34:21.102Z,1.30
2024-02-08T22:36:48.736Z,0.80
2024-02-08T22:39:16.349Z,0.98
2024-02-08T22:41:46.144Z,0.90
2024-02-08T22:44:15.801Z,1.08
2024-02-08T22:46:47.367Z,0.90
2024-02-08T22:49:17.737Z,0.93
2024-02-08T22:51:48.595Z,0.82
2024-02-08T22:54:21.855Z,0.65
2024-02-08T22:56:51.060Z,0.80
2024-02-08T22:59:21.780Z,0.77
2024-02-08T23:01:56.403Z,0.80
2024-02-08T23:04:24.651Z,0.60
2024-02-08T23:06:52.970Z,1.00
2024-02-08T23:09:20.795Z,0.90
2024-02-08T23:11:51.591Z,1.07
2024-02-08T23:14:20.553Z,1.00
2024-02-08T23:16:52.668Z,0.80
2024-02-08T23:19:21.232Z,0.80
2024-02-08T23:24:26.105Z,0.80
2024-02-08T23:26:54.187Z,0.75
2024-02-08T23:29:25.656Z,0.95
2024-02-08T23:31:53.315Z,1.10
2024-02-08T23:34:21.316Z,0.90
2024-02-08T23:36:55.515Z,0.80
2024-02-08T23:39:28.744Z,0.82
2024-02-08T23:41:57.633Z,0.80
2024-02-08T23:44:25.185Z,1.10
2024-02-08T23:46:55.870Z,1.05
2024-02-08T23:49:27.048Z,0.93
2024-02-08T23:51:56.722Z,1.30
2024-02-08T23:54:24.424Z,1.48
2024-02-08T23:56:55.167Z,1.00
2024-02-08T23:59:22.609Z,1.20
